Time;durP1;ratioP1;P1;durP2;ratioP2;P2;SDS_P1;SDS_P2;PMS_P1;PMS_P2;Temp;Humidity;BMP_temperature;BMP_pressure;BME280_temperature;BME280_humidity;BME280_pressure;Samples;Min_cycle;Max_cycle;Signal;HPM_P1;HPM_P2
2021/05/21 00:00:16;;;;;;;10.56;4.46;;;;;;;;;;366944;109;1961973;-73
2021/05/21 00:01:22;;;;;;;7.57;3.57;;;;;;;;;;367701;109;1961880;-72
2021/05/21 00:02:27;;;;;;;8.29;4.15;;;;;;;;;;366704;109;1961961;-71
2021/05/21 00:03:39;;;;;;;9.09;4.22;;;;;;;;;;392451;104;1986973;-71
2021/05/21 00:04:45;;;;;;;7.60;4.26;;;;;;;;;;343826;107;1962004;-71
2021/05/21 00:05:50;;;;;;;8.38;4.52;;;;;;;;;;348502;107;1960969;-72
2021/05/21 00:06:55;;;;;;;8.81;4.31;;;;;;;;;;350333;108;1961857;-72
2021/05/21 00:08:00;;;;;;;10.38;5.17;;;;;;;;;;347777;109;1962008;-70
2021/05/21 00:09:08;;;;;;;7.86;3.45;;;;;;;;;;350840;106;1961922;-72
2021/05/21 00:10:15;;;;;;;8.37;4.52;;;;;;;;;;356133;113;1961937;-71
2021/05/21 00:11:20;;;;;;;8.16;4.57;;;;;;;;;;360143;111;1962058;-73
2021/05/21 00:12:25;;;;;;;9.93;4.37;;;;;;;;;;357849;111;1962992;-71
2021/05/21 00:13:30;;;;;;;10.09;5.04;;;;;;;;;;352965;114;1961940;-72
2021/05/21 00:14:35;;;;;;;9.82;4.53;;;;;;;;;;356900;112;1961887;-72
2021/05/21 00:15:40;;;;;;;9.72;5.36;;;;;;;;;;351651;114;1961872;-71
2021/05/21 00:16:46;;;;;;;10.32;4.62;;;;;;;;;;354825;112;1962031;-71
2021/05/21 00:17:58;;;;;;;9.43;4.63;;;;;;;;;;389997;103;2072071;-71
2021/05/21 00:19:03;;;;;;;11.65;5.23;;;;;;;;;;374954;107;1961978;-71
2021/05/21 00:20:09;;;;;;;7.09;4.63;;;;;;;;;;335243;112;2446035;-71
2021/05/21 00:21:15;;;;;;;12.60;4.96;;;;;;;;;;358621;107;1961991;-70
2021/05/21 00:22:26;;;;;;;11.09;5.05;;;;;;;;;;383418;104;2077022;-72
2021/05/21 00:23:32;;;;;;;10.24;5.10;;;;;;;;;;367607;109;1961996;-71
2021/05/21 00:24:37;;;;;;;10.04;4.65;;;;;;;;;;371601;109;1963901;-71
2021/05/21 00:25:42;;;;;;;10.72;5.33;;;;;;;;;;370073;109;1962048;-71
2021/05/21 00:26:50;;;;;;;10.25;4.99;;;;;;;;;;340506;109;1963002;-70
2021/05/21 00:28:02;;;;;;;10.93;4.65;;;;;;;;;;394034;104;1985995;-70
2021/05/21 00:29:08;;;;;;;9.26;4.27;;;;;;;;;;357441;107;2907037;-71
2021/05/21 00:30:14;;;;;;;8.20;3.92;;;;;;;;;;372742;106;1961918;-70
2021/05/21 00:31:19;;;;;;;9.37;3.96;;;;;;;;;;375509;106;1961877;-70
2021/05/21 00:32:24;;;;;;;7.07;4.09;;;;;;;;;;377723;106;1963938;-71
2021/05/21 00:33:55;;;;;;;10.34;4.22;;;;;;;;;;412853;99;1984905;-71
2021/05/21 00:35:00;;;;;;;7.86;3.97;;;;;;;;;;392776;102;1960735;-71
2021/05/21 00:36:06;;;;;;;7.02;3.91;;;;;;;;;;389114;103;1960636;-70
2021/05/21 00:37:12;;;;;;;7.38;3.54;;;;;;;;;;383065;101;2950904;-70
2021/05/21 00:38:18;;;;;;;9.82;4.27;;;;;;;;;;348858;103;1971767;-70
2021/05/21 00:39:22;;;;;;;7.15;3.81;;;;;;;;;;352837;101;1963940;-71
2021/05/21 00:40:34;;;;;;;12.21;4.26;;;;;;;;;;398282;104;1984825;-70
2021/05/21 00:41:39;;;;;;;9.47;3.61;;;;;;;;;;373640;105;1961910;-70
2021/05/21 00:42:44;;;;;;;7.17;3.58;;;;;;;;;;376249;105;1961913;-71
2021/05/21 00:43:54;;;;;;;8.43;3.68;;;;;;;;;;371162;108;1961967;-70
2021/05/21 00:44:59;;;;;;;5.89;3.41;;;;;;;;;;371454;108;1961993;-71
2021/05/21 00:46:04;;;;;;;6.61;3.39;;;;;;;;;;373585;107;1961927;-70
2021/05/21 00:47:09;;;;;;;7.58;3.50;;;;;;;;;;369469;107;1961990;-70
2021/05/21 00:48:14;;;;;;;7.45;3.56;;;;;;;;;;367266;109;1961947;-70
2021/05/21 00:49:20;;;;;;;7.33;3.84;;;;;;;;;;373077;107;1962042;-71
2021/05/21 00:50:26;;;;;;;7.23;3.44;;;;;;;;;;344630;107;2369030;-70
2021/05/21 00:51:33;;;;;;;7.26;3.77;;;;;;;;;;331568;108;1964953;-71
2021/05/21 00:52:38;;;;;;;7.09;3.28;;;;;;;;;;367006;109;1963913;-70
2021/05/21 00:53:45;;;;;;;6.69;3.45;;;;;;;;;;365237;111;1961889;-71
2021/05/21 00:54:51;;;;;;;7.01;3.14;;;;;;;;;;363643;110;1961981;-70
2021/05/21 00:55:57;;;;;;;6.26;2.99;;;;;;;;;;353924;107;2249883;-71
2021/05/21 00:57:03;;;;;;;7.87;3.99;;;;;;;;;;371379;108;1963028;-70
2021/05/21 00:58:08;;;;;;;7.42;3.45;;;;;;;;;;371559;109;1961865;-71
2021/05/21 00:59:13;;;;;;;7.76;3.11;;;;;;;;;;369755;108;1962901;-69
2021/05/21 01:00:26;;;;;;;7.63;3.66;;;;;;;;;;368860;108;2940986;-70
2021/05/21 01:01:31;;;;;;;9.02;3.83;;;;;;;;;;312735;112;2089357;-71
2021/05/21 01:02:36;;;;;;;7.75;3.74;;;;;;;;;;352005;112;1965098;-69
2021/05/21 01:03:41;;;;;;;8.67;3.51;;;;;;;;;;358016;112;1961945;-71
2021/05/21 01:04:47;;;;;;;6.06;3.30;;;;;;;;;;359687;110;1961924;-71
2021/05/21 01:05:52;;;;;;;7.20;3.37;;;;;;;;;;358724;112;1960965;-71
2021/05/21 01:06:57;;;;;;;6.20;2.88;;;;;;;;;;361229;110;1961988;-72
2021/05/21 01:08:09;;;;;;;6.69;3.23;;;;;;;;;;395920;103;1985937;-71
2021/05/21 01:09:15;;;;;;;5.89;2.88;;;;;;;;;;345163;107;2512956;-70
2021/05/21 01:10:22;;;;;;;9.24;3.32;;;;;;;;;;372870;107;1961990;-71
2021/05/21 01:11:27;;;;;;;6.68;3.08;;;;;;;;;;375024;107;1961996;-71
2021/05/21 01:12:32;;;;;;;7.39;3.21;;;;;;;;;;368622;107;1960979;-69
2021/05/21 01:13:37;;;;;;;6.72;3.52;;;;;;;;;;364090;109;1962971;-70
2021/05/21 01:14:45;;;;;;;7.81;3.13;;;;;;;;;;363766;111;1960931;-70
2021/05/21 01:15:51;;;;;;;7.86;3.17;;;;;;;;;;365227;109;1961966;-70
2021/05/21 01:16:56;;;;;;;6.07;3.22;;;;;;;;;;365240;109;1961913;-72
2021/05/21 01:18:01;;;;;;;6.66;3.26;;;;;;;;;;364776;109;1962970;-69
2021/05/21 01:19:07;;;;;;;5.33;2.32;;;;;;;;;;363160;110;1961976;-70
2021/05/21 01:20:13;;;;;;;6.36;2.69;;;;;;;;;;366597;109;1961950;-70
2021/05/21 01:21:19;;;;;;;7.74;3.06;;;;;;;;;;318935;109;2766995;-71
2021/05/21 01:22:24;;;;;;;5.87;2.83;;;;;;;;;;331229;109;1961884;-71
2021/05/21 01:23:31;;;;;;;5.28;2.74;;;;;;;;;;366484;109;1961952;-70
2021/05/21 01:24:36;;;;;;;5.51;2.66;;;;;;;;;;362557;109;1963022;-70
2021/05/21 01:25:41;;;;;;;5.41;2.63;;;;;;;;;;365961;109;1961937;-71
2021/05/21 01:26:47;;;;;;;6.56;2.84;;;;;;;;;;365776;109;1961977;-71
2021/05/21 01:27:54;;;;;;;9.03;2.97;;;;;;;;;;368542;109;1962028;-68
2021/05/21 01:28:59;;;;;;;4.64;2.64;;;;;;;;;;356545;109;1961951;-71
2021/05/21 01:30:06;;;;;;;6.60;2.94;;;;;;;;;;370511;109;1962007;-71
2021/05/21 01:31:11;;;;;;;5.36;2.32;;;;;;;;;;364252;109;1961036;-70
2021/05/21 01:32:16;;;;;;;6.74;2.13;;;;;;;;;;365222;109;1962088;-69
2021/05/21 01:33:23;;;;;;;5.18;2.53;;;;;;;;;;369950;109;1962036;-69
2021/05/21 01:34:29;;;;;;;7.75;3.52;;;;;;;;;;318995;109;2232834;-70
2021/05/21 01:35:34;;;;;;;5.58;2.48;;;;;;;;;;369062;109;1962048;-71
2021/05/21 01:36:40;;;;;;;5.71;2.43;;;;;;;;;;365459;109;1961918;-70
2021/05/21 01:37:46;;;;;;;5.29;2.46;;;;;;;;;;368410;109;1961717;-71
2021/05/21 01:39:00;;;;;;;7.96;2.73;;;;;;;;;;365495;104;1960958;-71
2021/05/21 01:40:07;;;;;;;4.63;2.38;;;;;;;;;;377978;106;1960891;-71
2021/05/21 01:41:12;;;;;;;4.49;2.40;;;;;;;;;;333052;107;2723086;-72
2021/05/21 01:42:18;;;;;;;7.12;2.97;;;;;;;;;;326223;109;2029974;-71
2021/05/21 01:43:25;;;;;;;6.89;2.95;;;;;;;;;;369211;109;1965015;-71
2021/05/21 01:44:30;;;;;;;5.51;2.39;;;;;;;;;;366084;109;1961949;-72
2021/05/21 01:45:37;;;;;;;4.96;2.17;;;;;;;;;;367871;108;1961950;-72
2021/05/21 01:46:43;;;;;;;4.28;2.37;;;;;;;;;;338974;107;1961962;-71
2021/05/21 01:47:52;;;;;;;4.52;2.44;;;;;;;;;;335719;109;2538879;-72
2021/05/21 01:48:57;;;;;;;5.56;2.65;;;;;;;;;;320003;107;2097360;-72
2021/05/21 01:50:03;;;;;;;5.31;2.39;;;;;;;;;;330977;108;1980560;-71
2021/05/21 01:51:08;;;;;;;4.75;2.53;;;;;;;;;;370093;109;1961913;-71
2021/05/21 01:52:13;;;;;;;5.06;2.21;;;;;;;;;;372842;107;1961930;-71
2021/05/21 01:53:18;;;;;;;4.59;2.17;;;;;;;;;;375252;107;1961946;-71
2021/05/21 01:54:23;;;;;;;4.78;2.44;;;;;;;;;;370094;107;1962928;-71
2021/05/21 01:55:28;;;;;;;5.18;2.69;;;;;;;;;;371662;107;1962869;-72
2021/05/21 01:56:36;;;;;;;5.98;2.40;;;;;;;;;;317279;109;2840991;-72
2021/05/21 01:57:43;;;;;;;5.33;2.28;;;;;;;;;;370251;109;1961928;-71
2021/05/21 01:58:56;;;;;;;5.88;2.66;;;;;;;;;;391092;104;2071030;-71
2021/05/21 02:00:03;;;;;;;4.76;2.77;;;;;;;;;;373552;106;1969940;-72
2021/05/21 02:01:10;;;;;;;3.84;2.41;;;;;;;;;;321158;107;2233993;-72
2021/05/21 02:02:16;;;;;;;4.19;2.27;;;;;;;;;;344740;105;1963150;-71
2021/05/21 02:03:20;;;;;;;5.15;2.81;;;;;;;;;;348219;107;1962023;-71
2021/05/21 02:04:34;;;;;;;5.33;2.71;;;;;;;;;;394221;104;1986998;-71
2021/05/21 02:05:40;;;;;;;6.56;2.74;;;;;;;;;;325846;107;2787369;-70
2021/05/21 02:06:51;;;;;;;5.41;2.70;;;;;;;;;;400024;101;2070964;-72
2021/05/21 02:07:56;;;;;;;4.77;2.98;;;;;;;;;;375759;106;1969018;-70
2021/05/21 02:09:20;;;;;;;8.03;2.71;;;;;;;;;;345114;106;2427916;-71
2021/05/21 02:10:25;;;;;;;6.68;2.58;;;;;;;;;;351435;105;1961984;-71
2021/05/21 02:11:35;;;;;;;5.11;2.48;;;;;;;;;;361815;106;1961947;-71
2021/05/21 02:12:42;;;;;;;5.60;2.84;;;;;;;;;;368158;106;1967894;-72
2021/05/21 02:13:47;;;;;;;4.95;2.62;;;;;;;;;;378803;106;1961943;-72
2021/05/21 02:14:53;;;;;;;5.68;2.65;;;;;;;;;;373040;107;1961816;-71
2021/05/21 02:15:59;;;;;;;6.73;2.87;;;;;;;;;;339553;106;2637894;-71
2021/05/21 02:17:05;;;;;;;5.41;3.21;;;;;;;;;;345844;106;1962885;-71
2021/05/21 02:18:09;;;;;;;7.40;3.02;;;;;;;;;;370227;106;1961941;-71
2021/05/21 02:19:15;;;;;;;5.14;2.83;;;;;;;;;;379782;107;1961937;-71
2021/05/21 02:20:22;;;;;;;6.38;2.99;;;;;;;;;;379214;107;1962955;-71
2021/05/21 02:21:32;;;;;;;5.44;2.52;;;;;;;;;;378186;106;1961898;-69
2021/05/21 02:22:39;;;;;;;5.43;2.58;;;;;;;;;;376434;107;1963017;-70
2021/05/21 02:23:44;;;;;;;6.69;3.02;;;;;;;;;;378443;106;1961943;-70
2021/05/21 02:24:50;;;;;;;7.67;3.08;;;;;;;;;;376261;107;1962985;-72
2021/05/21 02:25:55;;;;;;;7.32;3.51;;;;;;;;;;379183;107;1961889;-71
2021/05/21 02:27:01;;;;;;;6.69;3.11;;;;;;;;;;378338;106;1962981;-70
2021/05/21 02:28:07;;;;;;;9.02;3.08;;;;;;;;;;376435;106;1961934;-70
2021/05/21 02:29:11;;;;;;;8.16;3.16;;;;;;;;;;376733;106;1962008;-70
2021/05/21 02:30:17;;;;;;;8.23;3.30;;;;;;;;;;346767;109;2268954;-71
2021/05/21 02:31:23;;;;;;;7.83;3.07;;;;;;;;;;340162;106;1961940;-71
2021/05/21 02:32:29;;;;;;;8.41;3.78;;;;;;;;;;357996;108;1962907;-71
2021/05/21 02:33:34;;;;;;;7.69;3.84;;;;;;;;;;378831;106;1962910;-71
2021/05/21 02:34:39;;;;;;;7.88;3.65;;;;;;;;;;378943;106;1962012;-72
2021/05/21 02:35:44;;;;;;;7.28;3.72;;;;;;;;;;373607;105;1962909;-72
2021/05/21 02:36:49;;;;;;;8.15;4.12;;;;;;;;;;378378;105;1961929;-72
2021/05/21 02:37:54;;;;;;;6.41;3.47;;;;;;;;;;377274;106;1961976;-70
2021/05/21 02:39:00;;;;;;;9.63;3.74;;;;;;;;;;377303;106;1961985;-71
2021/05/21 02:40:06;;;;;;;7.71;3.33;;;;;;;;;;377398;106;1961926;-70
2021/05/21 02:41:11;;;;;;;10.24;4.35;;;;;;;;;;359151;106;2296948;-71
2021/05/21 02:42:23;;;;;;;7.66;4.04;;;;;;;;;;386421;105;1986957;-73
2021/05/21 02:43:29;;;;;;;6.66;3.21;;;;;;;;;;374704;107;1961951;-71
2021/05/21 02:44:35;;;;;;;8.97;4.19;;;;;;;;;;364772;109;1960825;-72
2021/05/21 02:45:41;;;;;;;8.01;3.69;;;;;;;;;;346109;109;2931997;-72
2021/05/21 02:46:46;;;;;;;7.69;4.11;;;;;;;;;;366977;107;1961948;-70
2021/05/21 02:47:51;;;;;;;13.02;4.04;;;;;;;;;;366175;110;1962046;-71
2021/05/21 02:48:56;;;;;;;8.41;3.49;;;;;;;;;;372127;107;1962057;-71
2021/05/21 02:50:02;;;;;;;7.57;3.79;;;;;;;;;;372446;108;1961904;-72
2021/05/21 02:51:06;;;;;;;6.87;3.62;;;;;;;;;;370213;107;1961909;-71
2021/05/21 02:52:11;;;;;;;8.08;4.27;;;;;;;;;;371201;107;1963971;-71
2021/05/21 02:53:16;;;;;;;9.39;4.03;;;;;;;;;;370655;107;1963008;-71
2021/05/21 02:54:21;;;;;;;8.21;4.14;;;;;;;;;;373528;109;1962919;-71
2021/05/21 02:55:26;;;;;;;7.01;3.44;;;;;;;;;;366602;109;1964020;-72
2021/05/21 02:56:31;;;;;;;8.63;4.03;;;;;;;;;;357191;112;1963001;-71
2021/05/21 02:57:37;;;;;;;7.74;3.45;;;;;;;;;;355091;112;1961883;-71
2021/05/21 02:58:42;;;;;;;8.73;3.59;;;;;;;;;;357995;112;1961883;-71
2021/05/21 02:59:47;;;;;;;6.96;3.84;;;;;;;;;;357562;112;1961837;-72
2021/05/21 03:01:18;;;;;;;7.98;3.70;;;;;;;;;;387725;105;1986071;-71
2021/05/21 03:02:24;;;;;;;7.51;3.60;;;;;;;;;;355250;109;2961889;-73
2021/05/21 03:03:30;;;;;;;7.71;3.16;;;;;;;;;;361438;111;1961959;-71
2021/05/21 03:04:35;;;;;;;6.94;3.68;;;;;;;;;;362157;110;1961004;-71
2021/05/21 03:05:40;;;;;;;6.84;3.96;;;;;;;;;;357849;111;1962947;-71
2021/05/21 03:07:11;;;;;;;8.43;4.00;;;;;;;;;;409848;99;1985985;-70
2021/05/21 03:08:16;;;;;;;7.50;3.68;;;;;;;;;;382325;106;1963905;-71
2021/05/21 03:09:22;;;;;;;7.21;3.28;;;;;;;;;;383743;105;1961908;-71
2021/05/21 03:10:28;;;;;;;8.58;3.82;;;;;;;;;;346024;104;1966186;-72
2021/05/21 03:11:33;;;;;;;7.53;3.75;;;;;;;;;;373091;104;1961861;-71
2021/05/21 03:12:39;;;;;;;6.27;3.34;;;;;;;;;;391174;102;1961972;-71
2021/05/21 03:13:44;;;;;;;8.51;3.79;;;;;;;;;;386723;104;1962926;-71
2021/05/21 03:14:49;;;;;;;8.60;3.56;;;;;;;;;;391121;101;1961981;-71
2021/05/21 03:15:55;;;;;;;7.16;3.62;;;;;;;;;;390014;103;1961966;-71
2021/05/21 03:17:02;;;;;;;6.37;3.56;;;;;;;;;;387761;101;1962020;-71
2021/05/21 03:18:09;;;;;;;6.66;3.39;;;;;;;;;;366514;101;2281061;-71
2021/05/21 03:19:14;;;;;;;8.79;3.40;;;;;;;;;;388319;103;1961960;-72
2021/05/21 03:20:20;;;;;;;6.61;3.19;;;;;;;;;;390724;103;1963968;-70
2021/05/21 03:21:24;;;;;;;9.44;4.01;;;;;;;;;;388312;103;1960837;-70
2021/05/21 03:22:29;;;;;;;7.80;3.56;;;;;;;;;;392536;101;1962003;-72
2021/05/21 03:23:35;;;;;;;8.78;3.62;;;;;;;;;;371027;108;1963996;-71
2021/05/21 03:24:41;;;;;;;6.78;3.11;;;;;;;;;;354225;107;2930952;-72
2021/05/21 03:25:47;;;;;;;6.31;3.23;;;;;;;;;;327294;103;2174685;-72
2021/05/21 03:26:53;;;;;;;7.71;3.39;;;;;;;;;;392555;101;1962029;-71
2021/05/21 03:27:59;;;;;;;6.25;3.62;;;;;;;;;;376696;106;1961974;-70
2021/05/21 03:29:04;;;;;;;7.17;3.16;;;;;;;;;;374192;108;1962001;-73
2021/05/21 03:30:11;;;;;;;7.44;3.46;;;;;;;;;;367852;106;2952989;-71
2021/05/21 03:31:16;;;;;;;8.04;3.14;;;;;;;;;;352198;106;1960688;-72
2021/05/21 03:32:21;;;;;;;6.83;3.56;;;;;;;;;;372359;101;1961945;-72
2021/05/21 03:33:26;;;;;;;5.52;3.73;;;;;;;;;;386009;104;1963062;-70
2021/05/21 03:34:31;;;;;;;6.77;2.83;;;;;;;;;;391961;102;1963298;-71
2021/05/21 03:35:37;;;;;;;8.08;3.92;;;;;;;;;;389815;102;1961897;-72
2021/05/21 03:36:42;;;;;;;8.29;3.97;;;;;;;;;;389462;103;1961929;-72
2021/05/21 03:37:47;;;;;;;6.29;2.98;;;;;;;;;;386542;103;1962016;-72
2021/05/21 03:38:52;;;;;;;6.79;2.88;;;;;;;;;;386836;103;1961907;-73
2021/05/21 03:39:57;;;;;;;7.28;3.06;;;;;;;;;;379624;105;1961108;-73
2021/05/21 03:41:06;;;;;;;9.48;3.48;;;;;;;;;;388872;103;1961956;-73
2021/05/21 03:42:11;;;;;;;5.92;2.66;;;;;;;;;;388173;102;1963051;-72
2021/05/21 03:43:16;;;;;;;6.34;3.29;;;;;;;;;;387840;103;1963915;-72
2021/05/21 03:44:21;;;;;;;3.81;2.31;;;;;;;;;;388938;103;1963972;-73
2021/05/21 03:45:26;;;;;;;5.69;2.37;;;;;;;;;;390426;103;1961975;-72
2021/05/21 03:46:33;;;;;;;5.96;2.99;;;;;;;;;;388333;103;1963023;-72
2021/05/21 03:47:39;;;;;;;6.01;3.19;;;;;;;;;;371879;104;2949002;-71
2021/05/21 03:48:44;;;;;;;7.67;2.78;;;;;;;;;;322008;101;2191316;-72
2021/05/21 03:50:01;;;;;;;5.62;2.16;;;;;;;;;;359788;101;1962007;-71
2021/05/21 03:51:06;;;;;;;4.26;2.28;;;;;;;;;;380911;105;1961988;-71
2021/05/21 03:52:11;;;;;;;5.14;2.23;;;;;;;;;;378354;104;1961980;-72
2021/05/21 03:53:16;;;;;;;5.38;2.83;;;;;;;;;;374302;107;1962915;-71
2021/05/21 03:54:27;;;;;;;4.63;2.60;;;;;;;;;;393890;104;1987002;-71
2021/05/21 03:55:32;;;;;;;5.68;2.97;;;;;;;;;;369950;109;1963035;-72
2021/05/21 03:56:40;;;;;;;7.16;2.75;;;;;;;;;;375194;106;1962048;-71
2021/05/21 03:57:51;;;;;;;5.89;2.83;;;;;;;;;;403190;104;1986974;-71
2021/05/21 03:58:57;;;;;;;6.47;2.92;;;;;;;;;;373327;101;1962244;-72
2021/05/21 04:00:03;;;;;;;5.23;2.72;;;;;;;;;;355703;114;1961950;-72
2021/05/21 04:01:09;;;;;;;7.29;2.94;;;;;;;;;;352425;113;1962935;-72
2021/05/21 04:02:15;;;;;;;5.88;2.96;;;;;;;;;;348803;114;1962885;-70
2021/05/21 04:03:20;;;;;;;5.86;2.71;;;;;;;;;;362350;111;1963877;-72
2021/05/21 04:04:25;;;;;;;6.28;3.22;;;;;;;;;;366262;111;1961896;-72
2021/05/21 04:05:32;;;;;;;7.59;3.45;;;;;;;;;;361761;111;1962006;-72
2021/05/21 04:06:43;;;;;;;7.09;2.69;;;;;;;;;;386781;106;1985885;-71
2021/05/21 04:07:50;;;;;;;11.03;2.88;;;;;;;;;;373423;107;1962020;-72
2021/05/21 04:08:55;;;;;;;4.78;2.73;;;;;;;;;;372503;107;1961868;-72
2021/05/21 04:10:00;;;;;;;7.16;2.69;;;;;;;;;;373485;107;1961776;-73
2021/05/21 04:11:05;;;;;;;7.59;2.84;;;;;;;;;;379839;107;1961824;-72
2021/05/21 04:12:11;;;;;;;7.66;2.84;;;;;;;;;;374777;107;1960791;-73
2021/05/21 04:13:16;;;;;;;6.93;2.87;;;;;;;;;;371652;107;1962086;-73
2021/05/21 04:14:22;;;;;;;6.63;3.06;;;;;;;;;;355525;110;2964022;-72
2021/05/21 04:15:27;;;;;;;7.57;3.32;;;;;;;;;;318173;109;2071212;-72
2021/05/21 04:16:38;;;;;;;5.27;3.34;;;;;;;;;;395188;104;1984689;-73
2021/05/21 04:17:44;;;;;;;5.14;2.32;;;;;;;;;;372361;107;1961979;-72
2021/05/21 04:18:49;;;;;;;4.57;1.95;;;;;;;;;;369369;109;1961879;-73
2021/05/21 04:19:54;;;;;;;7.27;3.14;;;;;;;;;;369727;108;1962995;-72
2021/05/21 04:20:59;;;;;;;5.79;3.13;;;;;;;;;;370652;108;1962027;-72
2021/05/21 04:22:04;;;;;;;5.73;2.89;;;;;;;;;;371868;107;1962050;-72
2021/05/21 04:23:09;;;;;;;6.93;3.12;;;;;;;;;;371640;107;1964009;-72
2021/05/21 04:24:14;;;;;;;7.82;2.96;;;;;;;;;;371605;107;1961953;-71
2021/05/21 04:25:26;;;;;;;6.17;2.78;;;;;;;;;;351669;104;2881976;-73
2021/05/21 04:26:32;;;;;;;7.10;3.04;;;;;;;;;;353938;107;1961957;-73
2021/05/21 04:27:37;;;;;;;8.46;3.16;;;;;;;;;;357602;107;1960732;-71
2021/05/21 04:28:42;;;;;;;6.39;2.96;;;;;;;;;;360626;108;1964820;-73
2021/05/21 04:29:47;;;;;;;5.76;2.76;;;;;;;;;;371438;107;1961984;-73
2021/05/21 04:30:53;;;;;;;5.61;2.63;;;;;;;;;;369007;108;1962886;-72
2021/05/21 04:31:58;;;;;;;6.24;2.35;;;;;;;;;;369299;108;1962034;-72
2021/05/21 04:33:04;;;;;;;5.99;2.79;;;;;;;;;;377350;107;1961892;-73
2021/05/21 04:34:10;;;;;;;8.21;2.76;;;;;;;;;;367849;109;1961928;-72
2021/05/21 04:35:15;;;;;;;6.97;3.59;;;;;;;;;;371316;107;1961950;-71
2021/05/21 04:36:21;;;;;;;6.33;2.84;;;;;;;;;;349880;109;2305092;-72
2021/05/21 04:37:32;;;;;;;6.74;2.89;;;;;;;;;;385609;103;1987054;-72
2021/05/21 04:38:37;;;;;;;6.19;3.15;;;;;;;;;;366617;109;1961979;-71
2021/05/21 04:39:43;;;;;;;6.91;3.26;;;;;;;;;;370736;109;1961984;-72
2021/05/21 04:40:48;;;;;;;7.21;3.21;;;;;;;;;;372702;109;1962998;-72
2021/05/21 04:42:00;;;;;;;4.41;2.26;;;;;;;;;;380058;106;2967917;-72
2021/05/21 04:43:05;;;;;;;6.63;2.50;;;;;;;;;;320371;110;2016591;-72
2021/05/21 04:44:11;;;;;;;6.09;2.91;;;;;;;;;;325843;110;1966956;-72
2021/05/21 04:45:17;;;;;;;5.48;2.29;;;;;;;;;;363381;110;1961970;-73
2021/05/21 04:46:24;;;;;;;5.64;2.74;;;;;;;;;;363145;111;1961901;-72
2021/05/21 04:47:36;;;;;;;5.42;2.59;;;;;;;;;;373818;106;1984670;-72
2021/05/21 04:48:41;;;;;;;7.28;3.19;;;;;;;;;;355035;108;1963009;-72
2021/05/21 04:49:46;;;;;;;4.84;2.26;;;;;;;;;;357416;108;1960901;-73
2021/05/21 04:50:53;;;;;;;4.23;2.40;;;;;;;;;;371243;109;1960863;-72
2021/05/21 04:52:01;;;;;;;7.38;2.37;;;;;;;;;;353408;106;1963992;-72
2021/05/21 04:53:13;;;;;;;3.73;1.79;;;;;;;;;;394173;104;1984697;-73
2021/05/21 04:54:19;;;;;;;3.26;1.91;;;;;;;;;;378450;106;1962043;-72
2021/05/21 04:55:25;;;;;;;4.88;2.51;;;;;;;;;;326840;107;2838016;-72
2021/05/21 04:56:31;;;;;;;4.64;2.37;;;;;;;;;;360881;106;1963942;-72
2021/05/21 04:57:36;;;;;;;5.50;2.54;;;;;;;;;;377578;105;1960995;-73
2021/05/21 04:58:41;;;;;;;4.35;1.98;;;;;;;;;;375038;107;1962076;-73
2021/05/21 04:59:47;;;;;;;5.79;2.25;;;;;;;;;;375880;105;1961955;-72
2021/05/21 05:00:54;;;;;;;6.98;2.72;;;;;;;;;;375787;105;1961998;-73
2021/05/21 05:02:00;;;;;;;9.30;4.29;;;;;;;;;;324198;105;2833045;-73
2021/05/21 05:03:23;;;;;;;9.42;4.12;;;;;;;;;;389409;104;2072007;-73
2021/05/21 05:04:28;;;;;;;9.04;3.32;;;;;;;;;;367587;108;1962034;-73
2021/05/21 05:05:34;;;;;;;7.92;2.23;;;;;;;;;;366295;108;1962006;-72
2021/05/21 05:06:39;;;;;;;8.07;3.27;;;;;;;;;;307542;110;2109747;-72
2021/05/21 05:07:45;;;;;;;6.77;2.87;;;;;;;;;;357194;110;1960912;-73
2021/05/21 05:08:51;;;;;;;7.07;3.64;;;;;;;;;;366550;110;1962815;-73
2021/05/21 05:09:56;;;;;;;6.30;2.57;;;;;;;;;;356649;112;1960722;-73
2021/05/21 05:11:01;;;;;;;6.97;2.56;;;;;;;;;;359959;110;1960589;-72
2021/05/21 05:12:19;;;;;;;7.04;2.95;;;;;;;;;;363751;110;1960810;-73
2021/05/21 05:13:24;;;;;;;4.60;2.44;;;;;;;;;;335953;107;1963945;-72
2021/05/21 05:14:29;;;;;;;5.87;2.84;;;;;;;;;;330678;108;1961930;-73
2021/05/21 05:15:35;;;;;;;5.94;2.51;;;;;;;;;;326342;109;1962119;-72
2021/05/21 05:16:41;;;;;;;8.89;3.11;;;;;;;;;;356458;111;1962036;-73
2021/05/21 05:19:00;;;;;;;12.12;3.44;;;;;;;;;;384813;106;1985939;-72
2021/05/21 05:20:26;;;;;;;6.37;2.68;;;;;;;;;;367581;108;1962056;-72
2021/05/21 05:21:32;;;;;;;8.99;3.36;;;;;;;;;;350722;114;1962036;-73
2021/05/21 05:22:38;;;;;;;6.07;2.78;;;;;;;;;;349131;114;1961995;-73
2021/05/21 05:23:49;;;;;;;8.79;3.16;;;;;;;;;;370710;104;2071814;-74
2021/05/21 05:24:58;;;;;;;5.47;2.17;;;;;;;;;;353078;106;1961934;-73
2021/05/21 05:26:04;;;;;;;7.65;2.99;;;;;;;;;;346418;107;2464000;-73
2021/05/21 05:27:15;;;;;;;8.31;3.69;;;;;;;;;;393746;104;1986159;-73
2021/05/21 05:28:34;;;;;;;5.68;2.54;;;;;;;;;;355323;111;1965047;-74
2021/05/21 05:29:47;;;;;;;8.22;3.98;;;;;;;;;;394454;104;1961972;-74
2021/05/21 05:30:53;;;;;;;6.30;2.37;;;;;;;;;;376356;106;1960962;-73
2021/05/21 05:32:08;;;;;;;9.89;2.79;;;;;;;;;;340491;106;2889909;-73
2021/05/21 05:33:13;;;;;;;8.69;2.97;;;;;;;;;;364856;108;1961908;-74
2021/05/21 05:34:18;;;;;;;11.40;4.05;;;;;;;;;;366376;110;1962001;-74
2021/05/21 05:35:24;;;;;;;5.95;2.12;;;;;;;;;;332642;108;2886983;-74
2021/05/21 05:36:29;;;;;;;7.83;1.98;;;;;;;;;;358310;108;1961855;-74
2021/05/21 05:37:34;;;;;;;5.84;1.88;;;;;;;;;;350986;112;1961925;-73
2021/05/21 05:38:39;;;;;;;10.59;3.06;;;;;;;;;;350472;111;1962019;-73
2021/05/21 05:39:51;;;;;;;6.02;2.52;;;;;;;;;;392719;103;1986091;-73
2021/05/21 05:40:57;;;;;;;10.28;3.93;;;;;;;;;;367417;103;1960935;-74
2021/05/21 05:42:13;;;;;;;12.96;4.41;;;;;;;;;;335708;108;2641693;31
2021/05/21 05:43:18;;;;;;;7.72;3.43;;;;;;;;;;341500;117;1965828;-74
2021/05/21 05:44:41;;;;;;;5.45;2.67;;;;;;;;;;341335;118;1962206;-76
2021/05/21 05:45:46;;;;;;;7.95;3.27;;;;;;;;;;332723;120;1962036;-74
2021/05/21 05:46:53;;;;;;;20.60;7.47;;;;;;;;;;332653;120;1962904;-77
2021/05/21 05:47:58;;;;;;;8.74;3.05;;;;;;;;;;341874;117;1964017;-75
2021/05/21 05:49:03;;;;;;;3.54;1.72;;;;;;;;;;341161;117;1962011;-75
2021/05/21 05:50:09;;;;;;;5.62;3.12;;;;;;;;;;332848;117;2961081;-74
2021/05/21 05:51:14;;;;;;;3.78;2.27;;;;;;;;;;329297;118;1960878;-74
2021/05/21 05:52:20;;;;;;;5.68;2.03;;;;;;;;;;335527;117;1961910;-74
2021/05/21 05:53:25;;;;;;;10.22;3.36;;;;;;;;;;337657;117;1963656;-74
2021/05/21 05:54:30;;;;;;;8.28;3.08;;;;;;;;;;338494;117;1961951;-74
2021/05/21 05:55:35;;;;;;;13.16;4.36;;;;;;;;;;341170;117;1961973;-74
2021/05/21 05:56:41;;;;;;;5.36;2.28;;;;;;;;;;340851;117;1961967;-75
2021/05/21 05:57:46;;;;;;;5.64;1.93;;;;;;;;;;341565;117;1962145;-74
2021/05/21 05:58:51;;;;;;;3.45;1.64;;;;;;;;;;341477;117;1964939;-74
2021/05/21 05:59:56;;;;;;;3.91;1.84;;;;;;;;;;341284;117;1961927;-75
2021/05/21 06:01:02;;;;;;;4.43;1.96;;;;;;;;;;340723;117;1961927;-74
2021/05/21 06:02:08;;;;;;;6.62;1.89;;;;;;;;;;341131;117;1963971;-74
2021/05/21 06:03:13;;;;;;;8.31;3.29;;;;;;;;;;341334;117;1962059;-74
2021/05/21 06:04:24;;;;;;;7.67;2.27;;;;;;;;;;371402;104;1986948;-73
2021/05/21 06:05:30;;;;;;;5.34;2.51;;;;;;;;;;353994;107;1962014;-73
2021/05/21 06:06:41;;;;;;;5.55;1.84;;;;;;;;;;401453;101;1985932;-74
2021/05/21 06:07:47;;;;;;;4.37;1.94;;;;;;;;;;384791;104;1961993;-73
2021/05/21 06:08:52;;;;;;;10.51;3.23;;;;;;;;;;385512;104;1963008;-74
2021/05/21 06:09:57;;;;;;;6.73;2.43;;;;;;;;;;384832;104;1961898;-73
2021/05/21 06:11:15;;;;;;;11.57;2.39;;;;;;;;;;398620;104;1986033;-74
2021/05/21 06:12:20;;;;;;;6.87;2.62;;;;;;;;;;380023;105;1962012;-73
2021/05/21 06:13:26;;;;;;;6.39;2.79;;;;;;;;;;380044;105;1961748;-74
2021/05/21 06:14:39;;;;;;;6.76;2.30;;;;;;;;;;335580;106;2820004;-74
2021/05/21 06:15:45;;;;;;;7.91;2.79;;;;;;;;;;351222;107;1961880;-73
2021/05/21 06:16:51;;;;;;;6.48;2.26;;;;;;;;;;335943;118;1962002;-74
2021/05/21 06:17:57;;;;;;;9.19;3.43;;;;;;;;;;346761;115;1960928;-74
2021/05/21 06:19:08;;;;;;;3.59;1.64;;;;;;;;;;393499;104;1987973;-75
2021/05/21 06:20:14;;;;;;;4.49;1.74;;;;;;;;;;346762;106;2455904;-74
2021/05/21 06:21:20;;;;;;;3.88;1.93;;;;;;;;;;348967;106;1961921;-73
2021/05/21 06:22:25;;;;;;;5.02;2.54;;;;;;;;;;366116;106;1961904;-74
2021/05/21 06:23:31;;;;;;;4.21;1.71;;;;;;;;;;370850;107;1962077;-75
2021/05/21 06:24:38;;;;;;;6.00;2.44;;;;;;;;;;371476;108;1963992;-74
2021/05/21 06:28:18;;;;;;;2.70;1.49;;;;;;;;;;370339;107;1961896;-74
2021/05/21 06:29:50;;;;;;;3.71;1.56;;;;;;;;;;403559;98;2899989;-74
2021/05/21 06:30:56;;;;;;;4.64;1.89;;;;;;;;;;396763;101;1961025;-74
2021/05/21 06:32:01;;;;;;;6.08;2.73;;;;;;;;;;394351;101;1961026;-74